sensor_id;sensor_type;location;lat;lon;timestamp;temperature;humidity
58951;DHT22;44730;53.158;6.398;2022-07-11T00:02:10;16.00;99.90
58951;DHT22;44730;53.158;6.398;2022-07-11T00:04:40;16.30;99.90
58951;DHT22;44730;53.158;6.398;2022-07-11T00:07:06;16.00;99.90
58951;DHT22;44730;53.158;6.398;2022-07-11T00:09:32;16.10;99.90
58951;DHT22;44730;53.158;6.398;2022-07-11T00:11:58;16.00;99.90
58951;DHT22;44730;53.158;6.398;2022-07-11T00:14:24;16.00;99.90
58951;DHT22;44730;53.158;6.398;2022-07-11T00:16:53;16.00;99.90
58951;DHT22;44730;53.158;6.398;2022-07-11T00:19:21;15.90;99.90
58951;DHT22;44730;53.158;6.398;2022-07-11T00:21:47;16.00;99.90
58951;DHT22;44730;53.158;6.398;2022-07-11T00:24:14;16.00;99.90
58951;DHT22;44730;53.158;6.398;2022-07-11T00:26:39;15.90;99.90
58951;DHT22;44730;53.158;6.398;2022-07-11T00:29:06;16.00;99.90
58951;DHT22;44730;53.158;6.398;2022-07-11T00:31:32;16.00;99.90
58951;DHT22;44730;53.158;6.398;2022-07-11T00:33:58;15.90;99.90
58951;DHT22;44730;53.158;6.398;2022-07-11T00:36:24;16.00;99.90
58951;DHT22;44730;53.158;6.398;2022-07-11T00:38:50;15.90;99.90
58951;DHT22;44730;53.158;6.398;2022-07-11T00:41:15;16.00;99.90
58951;DHT22;44730;53.158;6.398;2022-07-11T00:43:42;16.00;99.90
58951;DHT22;44730;53.158;6.398;2022-07-11T00:46:09;15.90;99.90
58951;DHT22;44730;53.158;6.398;2022-07-11T00:48:35;15.90;99.90
58951;DHT22;44730;53.158;6.398;2022-07-11T00:51:05;15.90;99.90
58951;DHT22;44730;53.158;6.398;2022-07-11T00:53:32;15.90;99.90
58951;DHT22;44730;53.158;6.398;2022-07-11T00:56:00;15.90;99.90
58951;DHT22;44730;53.158;6.398;2022-07-11T00:58:27;15.90;99.90
58951;DHT22;44730;53.158;6.398;2022-07-11T01:00:53;15.90;99.90
58951;DHT22;44730;53.158;6.398;2022-07-11T01:03:19;15.90;99.90
58951;DHT22;44730;53.158;6.398;2022-07-11T01:05:44;15.90;99.90
58951;DHT22;44730;53.158;6.398;2022-07-11T01:08:10;15.90;99.90
58951;DHT22;44730;53.158;6.398;2022-07-11T01:10:36;15.90;99.90
58951;DHT22;44730;53.158;6.398;2022-07-11T01:13:01;15.90;99.90
58951;DHT22;44730;53.158;6.398;2022-07-11T01:15:27;15.80;99.90
58951;DHT22;44730;53.158;6.398;2022-07-11T01:17:53;15.80;99.90
58951;DHT22;44730;53.158;6.398;2022-07-11T01:20:20;15.70;99.90
58951;DHT22;44730;53.158;6.398;2022-07-11T01:22:51;15.70;99.90
58951;DHT22;44730;53.158;6.398;2022-07-11T01:25:18;15.80;99.90
58951;DHT22;44730;53.158;6.398;2022-07-11T01:27:56;15.70;99.90
58951;DHT22;44730;53.158;6.398;2022-07-11T01:30:23;15.70;99.90
58951;DHT22;44730;53.158;6.398;2022-07-11T01:32:53;15.70;99.90
58951;DHT22;44730;53.158;6.398;2022-07-11T01:35:19;15.70;99.90
58951;DHT22;44730;53.158;6.398;2022-07-11T01:37:45;15.70;99.90
58951;DHT22;44730;53.158;6.398;2022-07-11T01:40:11;15.70;99.90
58951;DHT22;44730;53.158;6.398;2022-07-11T01:42:37;15.70;99.90
58951;DHT22;44730;53.158;6.398;2022-07-11T01:45:03;15.70;99.90
58951;DHT22;44730;53.158;6.398;2022-07-11T01:47:29;15.70;99.90
58951;DHT22;44730;53.158;6.398;2022-07-11T01:49:54;15.70;99.90
58951;DHT22;44730;53.158;6.398;2022-07-11T01:52:21;15.90;99.90
58951;DHT22;44730;53.158;6.398;2022-07-11T01:54:47;15.70;99.90
58951;DHT22;44730;53.158;6.398;2022-07-11T01:57:13;15.60;99.90
58951;DHT22;44730;53.158;6.398;2022-07-11T01:59:39;15.70;99.90
58951;DHT22;44730;53.158;6.398;2022-07-11T02:02:04;15.70;99.90
58951;DHT22;44730;53.158;6.398;2022-07-11T02:04:30;15.70;99.90
58951;DHT22;44730;53.158;6.398;2022-07-11T02:06:56;15.70;99.90
58951;DHT22;44730;53.158;6.398;2022-07-11T02:09:22;15.80;99.90
58951;DHT22;44730;53.158;6.398;2022-07-11T02:12:16;15.70;99.90
58951;DHT22;44730;53.158;6.398;2022-07-11T02:14:41;15.70;99.90
58951;DHT22;44730;53.158;6.398;2022-07-11T02:17:07;15.70;99.90
58951;DHT22;44730;53.158;6.398;2022-07-11T02:19:33;15.60;99.90
58951;DHT22;44730;53.158;6.398;2022-07-11T02:21:58;15.70;99.90
58951;DHT22;44730;53.158;6.398;2022-07-11T02:24:31;15.70;99.90
58951;DHT22;44730;53.158;6.398;2022-07-11T02:26:56;15.70;99.90
58951;DHT22;44730;53.158;6.398;2022-07-11T02:29:22;15.60;99.90
58951;DHT22;44730;53.158;6.398;2022-07-11T02:31:48;15.70;99.90
58951;DHT22;44730;53.158;6.398;2022-07-11T02:34:13;15.70;99.90
58951;DHT22;44730;53.158;6.398;2022-07-11T02:36:39;15.80;99.90
58951;DHT22;44730;53.158;6.398;2022-07-11T02:39:04;15.70;99.90
58951;DHT22;44730;53.158;6.398;2022-07-11T02:41:30;15.70;99.90
58951;DHT22;44730;53.158;6.398;2022-07-11T02:43:56;15.60;99.90
58951;DHT22;44730;53.158;6.398;2022-07-11T02:46:21;15.60;99.90
58951;DHT22;44730;53.158;6.398;2022-07-11T02:48:47;15.60;99.90
58951;DHT22;44730;53.158;6.398;2022-07-11T02:51:13;15.60;99.90
58951;DHT22;44730;53.158;6.398;2022-07-11T02:53:38;15.60;99.90
58951;DHT22;44730;53.158;6.398;2022-07-11T02:56:04;15.60;99.90
58951;DHT22;44730;53.158;6.398;2022-07-11T02:58:31;15.60;99.90
58951;DHT22;44730;53.158;6.398;2022-07-11T03:00:57;15.60;99.90
58951;DHT22;44730;53.158;6.398;2022-07-11T03:03:22;15.60;99.90
58951;DHT22;44730;53.158;6.398;2022-07-11T03:05:48;15.60;99.90
58951;DHT22;44730;53.158;6.398;2022-07-11T03:08:14;15.60;99.90
58951;DHT22;44730;53.158;6.398;2022-07-11T03:10:39;15.70;99.90
58951;DHT22;44730;53.158;6.398;2022-07-11T03:13:05;15.70;99.90
58951;DHT22;44730;53.158;6.398;2022-07-11T03:15:30;15.70;99.90
58951;DHT22;44730;53.158;6.398;2022-07-11T03:17:56;15.70;99.90
58951;DHT22;44730;53.158;6.398;2022-07-11T03:20:22;15.60;99.90
58951;DHT22;44730;53.158;6.398;2022-07-11T03:22:47;15.70;99.90
58951;DHT22;44730;53.158;6.398;2022-07-11T03:25:13;15.60;99.90
58951;DHT22;44730;53.158;6.398;2022-07-11T03:27:38;15.70;99.90
58951;DHT22;44730;53.158;6.398;2022-07-11T03:30:04;15.60;99.90
58951;DHT22;44730;53.158;6.398;2022-07-11T03:32:30;15.60;99.90
58951;DHT22;44730;53.158;6.398;2022-07-11T03:34:56;15.70;99.90
58951;DHT22;44730;53.158;6.398;2022-07-11T03:37:40;15.60;99.90
58951;DHT22;44730;53.158;6.398;2022-07-11T03:40:07;15.80;99.90
58951;DHT22;44730;53.158;6.398;2022-07-11T03:42:32;15.60;99.90
58951;DHT22;44730;53.158;6.398;2022-07-11T03:44:58;15.70;99.90
58951;DHT22;44730;53.158;6.398;2022-07-11T03:47:24;15.70;99.90
58951;DHT22;44730;53.158;6.398;2022-07-11T03:49:49;15.70;99.90
58951;DHT22;44730;53.158;6.398;2022-07-11T03:52:15;15.70;99.90
58951;DHT22;44730;53.158;6.398;2022-07-11T03:54:41;15.70;99.90
58951;DHT22;44730;53.158;6.398;2022-07-11T03:57:06;15.70;99.90
58951;DHT22;44730;53.158;6.398;2022-07-11T03:59:32;15.70;99.90
58951;DHT22;44730;53.158;6.398;2022-07-11T04:01:58;15.70;99.90
58951;DHT22;44730;53.158;6.398;2022-07-11T04:04:23;15.60;99.90
58951;DHT22;44730;53.158;6.398;2022-07-11T04:06:49;16.10;99.90
58951;DHT22;44730;53.158;6.398;2022-07-11T04:09:15;15.70;99.90
58951;DHT22;44730;53.158;6.398;2022-07-11T04:11:40;15.70;99.90
58951;DHT22;44730;53.158;6.398;2022-07-11T04:14:06;15.70;99.90
58951;DHT22;44730;53.158;6.398;2022-07-11T04:16:32;15.60;99.90
58951;DHT22;44730;53.158;6.398;2022-07-11T04:18:58;15.70;99.90
58951;DHT22;44730;53.158;6.398;2022-07-11T04:21:23;15.70;99.90
58951;DHT22;44730;53.158;6.398;2022-07-11T04:23:49;15.70;99.90
58951;DHT22;44730;53.158;6.398;2022-07-11T04:26:14;15.70;99.90
58951;DHT22;44730;53.158;6.398;2022-07-11T04:28:41;15.80;99.90
58951;DHT22;44730;53.158;6.398;2022-07-11T04:31:07;15.70;99.90
58951;DHT22;44730;53.158;6.398;2022-07-11T04:33:32;15.70;99.90
58951;DHT22;44730;53.158;6.398;2022-07-11T04:35:58;15.80;99.90
58951;DHT22;44730;53.158;6.398;2022-07-11T04:38:23;15.90;99.90
58951;DHT22;44730;53.158;6.398;2022-07-11T04:40:50;15.80;99.90
58951;DHT22;44730;53.158;6.398;2022-07-11T04:43:15;15.80;99.90
58951;DHT22;44730;53.158;6.398;2022-07-11T04:45:41;15.80;99.90
58951;DHT22;44730;53.158;6.398;2022-07-11T04:48:07;15.80;99.90
58951;DHT22;44730;53.158;6.398;2022-07-11T04:50:32;15.90;99.90
58951;DHT22;44730;53.158;6.398;2022-07-11T04:52:58;15.90;99.90
58951;DHT22;44730;53.158;6.398;2022-07-11T04:55:24;15.90;99.90
58951;DHT22;44730;53.158;6.398;2022-07-11T04:57:50;16.00;99.90
58951;DHT22;44730;53.158;6.398;2022-07-11T05:00:16;16.00;99.90
58951;DHT22;44730;53.158;6.398;2022-07-11T05:02:42;16.00;99.90
58951;DHT22;44730;53.158;6.398;2022-07-11T05:05:09;16.10;99.90
58951;DHT22;44730;53.158;6.398;2022-07-11T05:07:35;16.00;99.90
58951;DHT22;44730;53.158;6.398;2022-07-11T05:10:00;16.10;99.90
58951;DHT22;44730;53.158;6.398;2022-07-11T05:12:26;16.10;99.90
58951;DHT22;44730;53.158;6.398;2022-07-11T05:14:52;16.10;99.90
58951;DHT22;44730;53.158;6.398;2022-07-11T05:17:18;16.00;99.90
58951;DHT22;44730;53.158;6.398;2022-07-11T05:19:44;16.00;99.90
58951;DHT22;44730;53.158;6.398;2022-07-11T05:22:10;16.00;99.90
58951;DHT22;44730;53.158;6.398;2022-07-11T05:24:36;16.00;99.90
58951;DHT22;44730;53.158;6.398;2022-07-11T05:27:02;16.10;99.90
58951;DHT22;44730;53.158;6.398;2022-07-11T05:29:28;16.10;99.90
58951;DHT22;44730;53.158;6.398;2022-07-11T05:31:53;16.10;99.90
58951;DHT22;44730;53.158;6.398;2022-07-11T05:34:19;16.10;99.90
58951;DHT22;44730;53.158;6.398;2022-07-11T05:36:48;16.20;99.90
58951;DHT22;44730;53.158;6.398;2022-07-11T05:39:17;16.20;99.90
58951;DHT22;44730;53.158;6.398;2022-07-11T05:41:42;16.20;99.90
58951;DHT22;44730;53.158;6.398;2022-07-11T05:44:08;16.30;99.90
58951;DHT22;44730;53.158;6.398;2022-07-11T05:46:34;16.30;99.90
58951;DHT22;44730;53.158;6.398;2022-07-11T05:49:03;16.30;99.90
58951;DHT22;44730;53.158;6.398;2022-07-11T05:51:29;16.20;99.90
58951;DHT22;44730;53.158;6.398;2022-07-11T05:53:54;16.30;99.90
58951;DHT22;44730;53.158;6.398;2022-07-11T05:56:20;16.30;99.90
58951;DHT22;44730;53.158;6.398;2022-07-11T05:58:45;16.40;99.90
58951;DHT22;44730;53.158;6.398;2022-07-11T06:01:11;16.50;99.90
58951;DHT22;44730;53.158;6.398;2022-07-11T06:03:37;16.50;99.90
58951;DHT22;44730;53.158;6.398;2022-07-11T06:06:02;16.60;99.90
58951;DHT22;44730;53.158;6.398;2022-07-11T06:08:30;16.70;99.90
58951;DHT22;44730;53.158;6.398;2022-07-11T06:11:09;16.70;99.90
58951;DHT22;44730;53.158;6.398;2022-07-11T06:13:36;16.80;99.90
58951;DHT22;44730;53.158;6.398;2022-07-11T06:16:04;16.80;99.90
58951;DHT22;44730;53.158;6.398;2022-07-11T06:18:30;16.90;99.90
58951;DHT22;44730;53.158;6.398;2022-07-11T06:20:55;17.00;99.90
58951;DHT22;44730;53.158;6.398;2022-07-11T06:23:21;17.00;99.90
58951;DHT22;44730;53.158;6.398;2022-07-11T06:25:47;17.00;99.90
58951;DHT22;44730;53.158;6.398;2022-07-11T06:28:12;17.00;99.90
58951;DHT22;44730;53.158;6.398;2022-07-11T06:30:38;17.00;99.90
58951;DHT22;44730;53.158;6.398;2022-07-11T06:33:04;17.00;99.90
58951;DHT22;44730;53.158;6.398;2022-07-11T06:35:30;17.00;99.90
58951;DHT22;44730;53.158;6.398;2022-07-11T06:37:56;17.00;99.90
58951;DHT22;44730;53.158;6.398;2022-07-11T06:40:22;17.10;99.90
58951;DHT22;44730;53.158;6.398;2022-07-11T06:42:49;17.20;99.90
58951;DHT22;44730;53.158;6.398;2022-07-11T06:45:15;17.30;99.90
58951;DHT22;44730;53.158;6.398;2022-07-11T06:47:41;17.40;99.90
58951;DHT22;44730;53.158;6.398;2022-07-11T06:50:08;17.30;99.90
58951;DHT22;44730;53.158;6.398;2022-07-11T06:52:34;17.40;99.90
58951;DHT22;44730;53.158;6.398;2022-07-11T06:55:00;17.50;99.90
58951;DHT22;44730;53.158;6.398;2022-07-11T06:57:26;17.50;99.90
58951;DHT22;44730;53.158;6.398;2022-07-11T06:59:52;17.60;99.90
58951;DHT22;44730;53.158;6.398;2022-07-11T07:02:18;17.70;99.90
58951;DHT22;44730;53.158;6.398;2022-07-11T07:04:44;17.70;99.90
58951;DHT22;44730;53.158;6.398;2022-07-11T07:07:09;17.90;99.90
58951;DHT22;44730;53.158;6.398;2022-07-11T07:09:35;17.90;99.90
58951;DHT22;44730;53.158;6.398;2022-07-11T07:12:01;17.90;99.90
58951;DHT22;44730;53.158;6.398;2022-07-11T07:14:26;17.90;99.90
58951;DHT22;44730;53.158;6.398;2022-07-11T07:16:52;17.90;99.90
58951;DHT22;44730;53.158;6.398;2022-07-11T07:19:18;18.00;99.90
58951;DHT22;44730;53.158;6.398;2022-07-11T07:21:43;18.10;99.90
58951;DHT22;44730;53.158;6.398;2022-07-11T07:24:11;18.50;99.90
58951;DHT22;44730;53.158;6.398;2022-07-11T07:26:42;18.60;99.90
58951;DHT22;44730;53.158;6.398;2022-07-11T07:29:08;18.80;99.90
58951;DHT22;44730;53.158;6.398;2022-07-11T07:31:33;19.00;99.90
58951;DHT22;44730;53.158;6.398;2022-07-11T07:33:59;19.10;99.90
58951;DHT22;44730;53.158;6.398;2022-07-11T07:36:24;19.20;99.90
58951;DHT22;44730;53.158;6.398;2022-07-11T07:38:50;19.20;99.90
58951;DHT22;44730;53.158;6.398;2022-07-11T07:43:42;19.40;99.90
58951;DHT22;44730;53.158;6.398;2022-07-11T07:46:08;19.50;99.90
58951;DHT22;44730;53.158;6.398;2022-07-11T07:48:37;19.60;99.90
58951;DHT22;44730;53.158;6.398;2022-07-11T07:51:03;19.70;99.90
58951;DHT22;44730;53.158;6.398;2022-07-11T07:53:29;19.80;99.90
58951;DHT22;44730;53.158;6.398;2022-07-11T07:55:55;19.70;99.90
58951;DHT22;44730;53.158;6.398;2022-07-11T07:58:20;19.60;99.90
58951;DHT22;44730;53.158;6.398;2022-07-11T08:00:46;19.70;99.90
58951;DHT22;44730;53.158;6.398;2022-07-11T08:03:30;20.00;99.90
58951;DHT22;44730;53.158;6.398;2022-07-11T08:05:57;20.40;99.90
58951;DHT22;44730;53.158;6.398;2022-07-11T08:08:22;20.70;99.90
58951;DHT22;44730;53.158;6.398;2022-07-11T08:10:48;21.00;99.90
58951;DHT22;44730;53.158;6.398;2022-07-11T08:13:14;21.30;99.90
58951;DHT22;44730;53.158;6.398;2022-07-11T08:15:39;21.40;99.90
58951;DHT22;44730;53.158;6.398;2022-07-11T08:18:05;21.20;99.90
58951;DHT22;44730;53.158;6.398;2022-07-11T08:20:31;20.80;99.90
58951;DHT22;44730;53.158;6.398;2022-07-11T08:23:00;20.50;99.90
58951;DHT22;44730;53.158;6.398;2022-07-11T08:25:26;20.30;99.90
58951;DHT22;44730;53.158;6.398;2022-07-11T08:27:52;20.10;99.90
58951;DHT22;44730;53.158;6.398;2022-07-11T08:30:17;20.20;99.90
58951;DHT22;44730;53.158;6.398;2022-07-11T08:32:43;20.20;99.90
58951;DHT22;44730;53.158;6.398;2022-07-11T08:35:09;20.30;99.90
58951;DHT22;44730;53.158;6.398;2022-07-11T08:37:36;20.40;99.90
58951;DHT22;44730;53.158;6.398;2022-07-11T08:40:03;20.60;99.90
58951;DHT22;44730;53.158;6.398;2022-07-11T08:42:29;20.80;99.90
58951;DHT22;44730;53.158;6.398;2022-07-11T08:44:57;20.90;99.90
58951;DHT22;44730;53.158;6.398;2022-07-11T08:47:23;20.80;99.90
58951;DHT22;44730;53.158;6.398;2022-07-11T08:49:49;20.90;99.90
58951;DHT22;44730;53.158;6.398;2022-07-11T08:52:16;20.90;99.90
58951;DHT22;44730;53.158;6.398;2022-07-11T08:54:45;21.10;99.90
58951;DHT22;44730;53.158;6.398;2022-07-11T08:57:12;21.20;99.90
58951;DHT22;44730;53.158;6.398;2022-07-11T08:59:39;21.40;99.90
58951;DHT22;44730;53.158;6.398;2022-07-11T09:02:09;21.40;99.90
58951;DHT22;44730;53.158;6.398;2022-07-11T09:04:35;21.40;99.90
58951;DHT22;44730;53.158;6.398;2022-07-11T09:07:01;21.30;99.90
58951;DHT22;44730;53.158;6.398;2022-07-11T09:09:28;21.20;99.90
58951;DHT22;44730;53.158;6.398;2022-07-11T09:11:56;21.00;99.90
58951;DHT22;44730;53.158;6.398;2022-07-11T09:14:28;20.90;99.90
58951;DHT22;44730;53.158;6.398;2022-07-11T09:16:59;20.70;99.90
58951;DHT22;44730;53.158;6.398;2022-07-11T09:19:30;20.50;99.90
58951;DHT22;44730;53.158;6.398;2022-07-11T09:22:02;20.30;99.90
58951;DHT22;44730;53.158;6.398;2022-07-11T09:24:59;20.30;99.90
58951;DHT22;44730;53.158;6.398;2022-07-11T09:27:55;20.30;99.90
58951;DHT22;44730;53.158;6.398;2022-07-11T09:30:28;20.30;99.90
58951;DHT22;44730;53.158;6.398;2022-07-11T09:32:57;20.50;99.90
58951;DHT22;44730;53.158;6.398;2022-07-11T09:35:28;20.70;99.90
58951;DHT22;44730;53.158;6.398;2022-07-11T09:37:54;20.90;99.90
58951;DHT22;44730;53.158;6.398;2022-07-11T09:40:20;21.00;99.90
58951;DHT22;44730;53.158;6.398;2022-07-11T09:42:54;21.00;99.90
58951;DHT22;44730;53.158;6.398;2022-07-11T09:45:22;21.00;99.90
58951;DHT22;44730;53.158;6.398;2022-07-11T09:47:52;21.00;99.90
58951;DHT22;44730;53.158;6.398;2022-07-11T09:50:22;20.90;99.90
58951;DHT22;44730;53.158;6.398;2022-07-11T09:55:33;20.90;99.90
58951;DHT22;44730;53.158;6.398;2022-07-11T09:58:03;20.80;99.90
58951;DHT22;44730;53.158;6.398;2022-07-11T10:00:29;20.70;99.90
58951;DHT22;44730;53.158;6.398;2022-07-11T10:02:57;20.60;99.90
58951;DHT22;44730;53.158;6.398;2022-07-11T10:05:24;20.60;99.90
58951;DHT22;44730;53.158;6.398;2022-07-11T10:07:50;20.60;99.90
58951;DHT22;44730;53.158;6.398;2022-07-11T10:10:16;20.50;99.90
58951;DHT22;44730;53.158;6.398;2022-07-11T10:12:43;20.50;99.90
58951;DHT22;44730;53.158;6.398;2022-07-11T10:15:11;20.40;99.90
58951;DHT22;44730;53.158;6.398;2022-07-11T10:20:58;20.40;99.90
58951;DHT22;44730;53.158;6.398;2022-07-11T10:23:35;20.50;99.90
58951;DHT22;44730;53.158;6.398;2022-07-11T10:26:23;20.70;99.90
58951;DHT22;44730;53.158;6.398;2022-07-11T10:28:54;20.90;99.90
58951;DHT22;44730;53.158;6.398;2022-07-11T10:31:24;20.80;99.90
58951;DHT22;44730;53.158;6.398;2022-07-11T10:34:08;20.90;99.90
58951;DHT22;44730;53.158;6.398;2022-07-11T10:36:41;20.90;99.90
58951;DHT22;44730;53.158;6.398;2022-07-11T10:39:19;21.00;99.90
58951;DHT22;44730;53.158;6.398;2022-07-11T10:41:56;21.20;99.90
58951;DHT22;44730;53.158;6.398;2022-07-11T10:44:23;21.40;99.90
58951;DHT22;44730;53.158;6.398;2022-07-11T10:46:49;21.40;99.90
58951;DHT22;44730;53.158;6.398;2022-07-11T10:49:20;21.60;99.90
58951;DHT22;44730;53.158;6.398;2022-07-11T11:02:22;22.60;99.90
58951;DHT22;44730;53.158;6.398;2022-07-11T11:07:40;22.50;99.90
58951;DHT22;44730;53.158;6.398;2022-07-11T11:23:34;22.70;99.90
58951;DHT22;44730;53.158;6.398;2022-07-11T11:26:08;22.60;99.90
58951;DHT22;44730;53.158;6.398;2022-07-11T11:28:34;22.50;99.90
58951;DHT22;44730;53.158;6.398;2022-07-11T11:31:03;22.60;99.90
58951;DHT22;44730;53.158;6.398;2022-07-11T11:33:31;22.40;99.90
58951;DHT22;44730;53.158;6.398;2022-07-11T11:36:07;22.40;99.90
58951;DHT22;44730;53.158;6.398;2022-07-11T11:38:36;22.30;99.90
58951;DHT22;44730;53.158;6.398;2022-07-11T11:41:02;22.10;99.90
58951;DHT22;44730;53.158;6.398;2022-07-11T11:43:28;22.00;99.90
58951;DHT22;44730;53.158;6.398;2022-07-11T11:45:54;22.00;99.90
58951;DHT22;44730;53.158;6.398;2022-07-11T11:48:34;21.90;99.90
58951;DHT22;44730;53.158;6.398;2022-07-11T11:53:53;22.10;99.90
58951;DHT22;44730;53.158;6.398;2022-07-11T11:59:08;22.20;99.90
58951;DHT22;44730;53.158;6.398;2022-07-11T12:01:41;22.00;99.90
58951;DHT22;44730;53.158;6.398;2022-07-11T12:04:09;22.00;99.90
58951;DHT22;44730;53.158;6.398;2022-07-11T12:06:40;22.00;99.90
58951;DHT22;44730;53.158;6.398;2022-07-11T12:09:08;22.10;99.90
58951;DHT22;44730;53.158;6.398;2022-07-11T12:11:38;22.10;99.90
58951;DHT22;44730;53.158;6.398;2022-07-11T12:14:12;22.20;99.90
58951;DHT22;44730;53.158;6.398;2022-07-11T12:16:46;22.20;99.90
58951;DHT22;44730;53.158;6.398;2022-07-11T12:19:22;22.20;99.90
58951;DHT22;44730;53.158;6.398;2022-07-11T12:21:51;22.20;99.90
58951;DHT22;44730;53.158;6.398;2022-07-11T12:24:21;22.20;99.90
58951;DHT22;44730;53.158;6.398;2022-07-11T12:26:47;22.20;99.90
58951;DHT22;44730;53.158;6.398;2022-07-11T12:29:19;22.30;99.90
58951;DHT22;44730;53.158;6.398;2022-07-11T12:31:59;22.50;99.90
58951;DHT22;44730;53.158;6.398;2022-07-11T12:34:42;22.70;99.90
58951;DHT22;44730;53.158;6.398;2022-07-11T12:37:18;22.70;99.90
58951;DHT22;44730;53.158;6.398;2022-07-11T12:39:56;22.70;99.90
58951;DHT22;44730;53.158;6.398;2022-07-11T12:42:33;22.70;99.90
58951;DHT22;44730;53.158;6.398;2022-07-11T12:47:37;22.40;99.90
58951;DHT22;44730;53.158;6.398;2022-07-11T12:50:21;22.30;99.90
58951;DHT22;44730;53.158;6.398;2022-07-11T12:52:52;22.20;99.90
58951;DHT22;44730;53.158;6.398;2022-07-11T12:55:23;22.10;99.90
58951;DHT22;44730;53.158;6.398;2022-07-11T12:58:09;22.10;99.90
58951;DHT22;44730;53.158;6.398;2022-07-11T13:00:36;22.20;99.90
58951;DHT22;44730;53.158;6.398;2022-07-11T13:03:06;22.20;99.90
58951;DHT22;44730;53.158;6.398;2022-07-11T13:05:51;22.30;99.90
58951;DHT22;44730;53.158;6.398;2022-07-11T13:11:18;22.50;99.90
58951;DHT22;44730;53.158;6.398;2022-07-11T13:14:23;22.50;99.90
58951;DHT22;44730;53.158;6.398;2022-07-11T13:17:07;22.50;99.90
58951;DHT22;44730;53.158;6.398;2022-07-11T13:19:33;22.60;99.90
58951;DHT22;44730;53.158;6.398;2022-07-11T13:21:59;22.50;99.90
58951;DHT22;44730;53.158;6.398;2022-07-11T13:24:24;22.60;99.90
58951;DHT22;44730;53.158;6.398;2022-07-11T13:26:50;22.80;99.90
58951;DHT22;44730;53.158;6.398;2022-07-11T13:29:16;22.90;99.90
58951;DHT22;44730;53.158;6.398;2022-07-11T13:31:42;23.10;99.90
58951;DHT22;44730;53.158;6.398;2022-07-11T13:34:07;23.00;99.90
58951;DHT22;44730;53.158;6.398;2022-07-11T13:36:33;23.10;99.90
58951;DHT22;44730;53.158;6.398;2022-07-11T13:38:59;23.10;99.90
58951;DHT22;44730;53.158;6.398;2022-07-11T13:41:24;23.20;99.90
58951;DHT22;44730;53.158;6.398;2022-07-11T13:43:50;23.20;99.90
58951;DHT22;44730;53.158;6.398;2022-07-11T13:46:16;23.10;99.90
58951;DHT22;44730;53.158;6.398;2022-07-11T13:48:44;23.10;99.90
58951;DHT22;44730;53.158;6.398;2022-07-11T13:51:09;23.30;99.90
58951;DHT22;44730;53.158;6.398;2022-07-11T13:53:35;23.30;99.90
58951;DHT22;44730;53.158;6.398;2022-07-11T13:56:01;23.40;99.90
58951;DHT22;44730;53.158;6.398;2022-07-11T13:58:27;23.40;99.90
58951;DHT22;44730;53.158;6.398;2022-07-11T14:00:53;23.50;99.90
58951;DHT22;44730;53.158;6.398;2022-07-11T14:03:18;23.50;99.90
58951;DHT22;44730;53.158;6.398;2022-07-11T14:05:44;23.40;99.90
58951;DHT22;44730;53.158;6.398;2022-07-11T14:08:10;23.30;99.90
58951;DHT22;44730;53.158;6.398;2022-07-11T14:10:36;23.30;99.90
58951;DHT22;44730;53.158;6.398;2022-07-11T14:13:01;23.10;99.90
58951;DHT22;44730;53.158;6.398;2022-07-11T14:15:27;23.00;99.90
58951;DHT22;44730;53.158;6.398;2022-07-11T14:17:53;22.90;99.90
58951;DHT22;44730;53.158;6.398;2022-07-11T14:20:18;22.80;99.90
58951;DHT22;44730;53.158;6.398;2022-07-11T14:22:44;22.90;99.90
58951;DHT22;44730;53.158;6.398;2022-07-11T14:25:09;22.80;99.90
58951;DHT22;44730;53.158;6.398;2022-07-11T14:27:35;22.80;99.90
58951;DHT22;44730;53.158;6.398;2022-07-11T14:30:04;22.60;99.90
58951;DHT22;44730;53.158;6.398;2022-07-11T14:32:30;22.60;99.90
58951;DHT22;44730;53.158;6.398;2022-07-11T14:34:57;22.70;99.90
58951;DHT22;44730;53.158;6.398;2022-07-11T14:37:23;22.70;99.90
58951;DHT22;44730;53.158;6.398;2022-07-11T14:39:48;22.60;99.90
58951;DHT22;44730;53.158;6.398;2022-07-11T14:42:14;22.70;99.90
58951;DHT22;44730;53.158;6.398;2022-07-11T14:44:40;22.80;99.90
58951;DHT22;44730;53.158;6.398;2022-07-11T14:47:05;22.70;99.90
58951;DHT22;44730;53.158;6.398;2022-07-11T14:49:31;22.60;99.90
58951;DHT22;44730;53.158;6.398;2022-07-11T14:51:57;22.50;99.90
58951;DHT22;44730;53.158;6.398;2022-07-11T14:54:23;22.50;99.90
58951;DHT22;44730;53.158;6.398;2022-07-11T14:56:49;22.60;99.90
58951;DHT22;44730;53.158;6.398;2022-07-11T14:59:14;22.60;99.90
58951;DHT22;44730;53.158;6.398;2022-07-11T15:01:40;22.60;99.90
58951;DHT22;44730;53.158;6.398;2022-07-11T15:04:06;22.60;99.90
58951;DHT22;44730;53.158;6.398;2022-07-11T15:06:31;22.50;99.90
58951;DHT22;44730;53.158;6.398;2022-07-11T15:09:20;22.50;99.90
58951;DHT22;44730;53.158;6.398;2022-07-11T15:12:04;22.30;99.90
58951;DHT22;44730;53.158;6.398;2022-07-11T15:14:48;22.30;99.90
58951;DHT22;44730;53.158;6.398;2022-07-11T15:17:14;22.30;99.90
58951;DHT22;44730;53.158;6.398;2022-07-11T15:19:40;22.20;99.90
58951;DHT22;44730;53.158;6.398;2022-07-11T15:22:06;22.20;99.90
58951;DHT22;44730;53.158;6.398;2022-07-11T15:24:32;22.10;99.90
58951;DHT22;44730;53.158;6.398;2022-07-11T15:26:57;22.10;99.90
58951;DHT22;44730;53.158;6.398;2022-07-11T15:29:24;22.10;99.90
58951;DHT22;44730;53.158;6.398;2022-07-11T15:31:50;22.20;99.90
58951;DHT22;44730;53.158;6.398;2022-07-11T15:34:16;22.20;99.90
58951;DHT22;44730;53.158;6.398;2022-07-11T15:36:44;22.40;99.90
58951;DHT22;44730;53.158;6.398;2022-07-11T15:39:10;22.30;99.90
58951;DHT22;44730;53.158;6.398;2022-07-11T15:41:36;22.60;99.90
58951;DHT22;44730;53.158;6.398;2022-07-11T15:44:01;22.80;99.90
58951;DHT22;44730;53.158;6.398;2022-07-11T15:46:27;23.30;99.90
58951;DHT22;44730;53.158;6.398;2022-07-11T15:48:53;23.60;99.90
58951;DHT22;44730;53.158;6.398;2022-07-11T15:51:19;23.80;99.90
58951;DHT22;44730;53.158;6.398;2022-07-11T15:53:44;23.80;99.90
58951;DHT22;44730;53.158;6.398;2022-07-11T15:56:10;23.70;99.90
58951;DHT22;44730;53.158;6.398;2022-07-11T15:58:35;23.60;99.90
58951;DHT22;44730;53.158;6.398;2022-07-11T16:01:01;23.50;99.90
58951;DHT22;44730;53.158;6.398;2022-07-11T16:03:28;23.40;99.90
58951;DHT22;44730;53.158;6.398;2022-07-11T16:05:55;23.20;99.90
58951;DHT22;44730;53.158;6.398;2022-07-11T16:08:20;23.10;99.90
58951;DHT22;44730;53.158;6.398;2022-07-11T16:10:47;23.00;99.90
58951;DHT22;44730;53.158;6.398;2022-07-11T16:13:14;23.00;99.90
58951;DHT22;44730;53.158;6.398;2022-07-11T16:15:40;22.90;99.90
58951;DHT22;44730;53.158;6.398;2022-07-11T16:18:07;22.70;99.90
58951;DHT22;44730;53.158;6.398;2022-07-11T16:20:35;22.50;99.90